General Aviation Weather

Text Reports

Enter one or more of the following location identifiers separated by a space:

Zip Code, Four-Character ICAO or Three-Character IATA airport codes.

METAR - Aviation Routine Weather Report
KHYW - Conway, South Carolina
Updated at 10:35 PM GMT on December 28, 2014 (5:35 PM EST):
METAR KHYW 282235Z AUTO 00000KT 7SM OVC027 21/17 A3004 RMK AO2
TAF - Terminal Area Forecast
KHYW - Conway, South Carolina
Updated at 10:35 PM GMT on December 28, 2014 (5:35 PM EST):
No TAF is currently available for this location.
Decoded:
No decoded TAF is available.
PIREP - Pilot Weather Report
KHYW - Conway, South Carolina
Updated at 10:35 PM GMT on December 28, 2014 (5:35 PM EST):
No PIREP is currently available for this location.
AIRMET - Airmens Meteorological Information
KHYW - Conway, South Carolina
Updated at 10:35 PM GMT on December 28, 2014 (5:35 PM EST):
No AIRMET is currently available for this location.
SIGMET - Significant Meteorological Information
KHYW - Conway, South Carolina
Updated at 10:35 PM GMT on December 28, 2014 (5:35 PM EST):
No SIGMET is currently available for this location.
NOTAM - Notice to Airmen
KHYW - Conway, South Carolina
Updated at 10:35 PM GMT on December 28, 2014 (5:35 PM EST):
No NOTAM is currently available for this location.
Forecast Area
KHYW - Conway, South Carolina
Updated at 10:35 PM GMT on December 28, 2014 (5:35 PM EST):
No NOTAM is currently available for this location.
Aviation Weather Maps